Mullen, Nebraska
Current Conditions -  °F | °C
As of 9:55 AM on Friday 28 Nov 2014 (Local Time) from KTIF Reporting Station
Clear Clear  
Wind Chill: 64°   Ceiling: Unl
Heat Index: 64°   Visibility: 10mi
Dew Point: 28°   Wind: 20mph
Humidity: 25%   Direction: 270°W
Pressure: 29.74"   Gusts: 25mph
Location:  42.04°N, 101.04°W
Report Text: KTIF 281655Z AUTO 27017G22KT 10SM CLR 18/M02 A2974 RMK AO2 T01761025
Loading
Personal Weather Stations






























Interactive Weather Map New forecast layout! Learn more

10-Day Weather Forecast

Advertisements
Track Severe Weather on mobile